createdAt,value
2023-08-31T00:02:25.430Z,12.43
2023-08-31T00:04:55.380Z,12.36
2023-08-31T00:07:23.839Z,12.38
2023-08-31T00:09:52.716Z,12.34
2023-08-31T00:12:20.662Z,12.33
2023-08-31T00:14:48.957Z,12.27
2023-08-31T00:17:16.809Z,12.26
2023-08-31T00:19:44.821Z,12.17
2023-08-31T00:22:14.004Z,12.16
2023-08-31T00:24:41.910Z,12.12
2023-08-31T00:27:11.502Z,12.10
2023-08-31T00:29:40.061Z,11.99
2023-08-31T00:32:08.954Z,11.96
2023-08-31T00:34:36.797Z,11.81
2023-08-31T00:37:04.834Z,11.76
2023-08-31T00:39:35.137Z,11.68
2023-08-31T00:42:04.335Z,11.62
2023-08-31T00:44:34.373Z,11.63
2023-08-31T00:47:03.224Z,11.59
2023-08-31T00:49:31.235Z,11.58
2023-08-31T00:52:00.203Z,11.52
2023-08-31T00:54:28.851Z,11.48
2023-08-31T00:56:58.398Z,11.42
2023-08-31T00:59:27.641Z,11.42
2023-08-31T01:02:01.040Z,11.39
2023-08-31T01:04:35.542Z,11.32
2023-08-31T01:07:10.136Z,11.38
2023-08-31T01:09:45.043Z,11.34
2023-08-31T01:12:20.667Z,11.32
2023-08-31T01:14:56.476Z,11.28
2023-08-31T01:17:25.701Z,11.27
2023-08-31T01:19:54.468Z,11.25
2023-08-31T01:22:31.831Z,11.24
2023-08-31T01:25:05.465Z,11.24
2023-08-31T01:27:33.965Z,11.20
2023-08-31T01:30:01.892Z,11.20
2023-08-31T01:32:29.983Z,11.15
2023-08-31T01:34:58.586Z,11.18
2023-08-31T01:37:36.994Z,11.15
2023-08-31T01:40:12.847Z,11.10
2023-08-31T01:42:42.723Z,11.03
2023-08-31T01:45:12.627Z,11.08
2023-08-31T01:47:40.685Z,11.10
2023-08-31T01:50:08.999Z,11.07
2023-08-31T01:52:36.890Z,11.08
2023-08-31T01:55:08.833Z,11.10
2023-08-31T01:57:36.792Z,11.10
2023-08-31T02:00:11.607Z,11.15
2023-08-31T02:02:42.700Z,11.08
2023-08-31T02:05:11.135Z,11.10
2023-08-31T02:07:39.319Z,11.04
2023-08-31T02:10:09.597Z,11.01
2023-08-31T02:12:38.334Z,10.97
2023-08-31T02:15:06.918Z,10.85
2023-08-31T02:17:35.811Z,10.76
2023-08-31T02:20:05.624Z,10.85
2023-08-31T02:22:36.193Z,10.80
2023-08-31T02:25:04.729Z,10.84
2023-08-31T02:27:34.013Z,10.77
2023-08-31T02:30:02.048Z,10.74
2023-08-31T02:32:30.106Z,10.69
2023-08-31T02:34:58.185Z,10.64
2023-08-31T02:37:26.080Z,10.77
2023-08-31T02:39:53.960Z,10.84
2023-08-31T02:42:21.842Z,10.87
2023-08-31T02:44:54.294Z,10.91
2023-08-31T02:47:22.203Z,11.01
2023-08-31T02:49:53.021Z,11.08
2023-08-31T02:52:20.920Z,11.12
2023-08-31T02:54:48.874Z,11.17
2023-08-31T02:57:20.511Z,11.18
2023-08-31T02:59:53.241Z,11.17
2023-08-31T03:02:21.407Z,11.22
2023-08-31T03:04:49.371Z,11.39
2023-08-31T03:07:17.297Z,12.26
2023-08-31T03:09:45.233Z,13.02
2023-08-31T03:12:13.312Z,12.77
2023-08-31T03:14:41.486Z,12.50
2023-08-31T03:17:10.737Z,12.53
2023-08-31T03:19:38.431Z,12.55
2023-08-31T03:22:06.391Z,12.71
2023-08-31T03:24:34.586Z,12.75
2023-08-31T03:27:02.446Z,12.26
2023-08-31T03:29:33.031Z,11.94
2023-08-31T03:32:02.410Z,11.76
2023-08-31T03:34:32.551Z,11.61
2023-08-31T03:37:00.579Z,11.48
2023-08-31T03:39:28.529Z,11.45
2023-08-31T03:41:56.414Z,11.38
2023-08-31T03:44:24.632Z,11.32
2023-08-31T03:46:52.551Z,11.24
2023-08-31T03:49:20.620Z,11.15
2023-08-31T03:51:49.822Z,11.17
2023-08-31T03:54:18.997Z,11.20
2023-08-31T03:56:46.893Z,11.18
2023-08-31T03:59:15.019Z,11.12
2023-08-31T04:01:42.992Z,11.07
2023-08-31T04:04:12.965Z,11.08
2023-08-31T04:06:40.897Z,11.04
2023-08-31T04:09:10.447Z,10.99
2023-08-31T04:11:38.323Z,11.01
2023-08-31T04:14:06.254Z,10.96
2023-08-31T04:16:34.346Z,10.96
2023-08-31T04:19:02.185Z,10.89
2023-08-31T04:21:30.018Z,10.97
2023-08-31T04:24:00.870Z,10.94
2023-08-31T04:26:30.618Z,10.81
2023-08-31T04:28:58.513Z,10.84
2023-08-31T04:31:26.511Z,10.91
2023-08-31T04:33:55.300Z,10.90
2023-08-31T04:36:23.179Z,11.00
2023-08-31T04:38:51.438Z,10.99
2023-08-31T04:41:19.318Z,10.91
2023-08-31T04:43:49.640Z,10.87
2023-08-31T04:46:17.584Z,10.89
2023-08-31T04:48:45.448Z,10.89
2023-08-31T04:51:31.554Z,11.03
2023-08-31T04:53:59.405Z,10.97
2023-08-31T04:56:27.217Z,11.01
2023-08-31T04:58:56.437Z,11.00
2023-08-31T05:01:24.139Z,10.96
2023-08-31T05:03:52.602Z,11.07
2023-08-31T05:06:21.206Z,11.10
2023-08-31T05:08:49.348Z,11.12
2023-08-31T05:11:17.389Z,11.15
2023-08-31T05:13:45.252Z,11.18
2023-08-31T05:16:14.519Z,11.21
2023-08-31T05:18:42.559Z,11.24
2023-08-31T05:21:10.571Z,11.31
2023-08-31T05:23:38.537Z,11.32
2023-08-31T05:26:06.465Z,11.35
2023-08-31T05:28:34.599Z,11.42
2023-08-31T05:31:03.702Z,11.55
2023-08-31T05:33:35.197Z,11.61
2023-08-31T05:36:05.633Z,11.78
2023-08-31T05:38:33.551Z,12.34
2023-08-31T05:41:10.927Z,12.65
2023-08-31T05:43:41.310Z,13.06
2023-08-31T05:46:10.203Z,13.64
2023-08-31T05:48:39.525Z,14.41
2023-08-31T05:51:07.322Z,14.97
2023-08-31T05:53:35.964Z,15.46
2023-08-31T05:56:06.176Z,15.55
2023-08-31T05:58:35.146Z,16.01
2023-08-31T06:01:03.477Z,16.74
2023-08-31T06:03:31.972Z,17.18
2023-08-31T06:06:01.930Z,17.75
2023-08-31T06:08:30.735Z,17.72
2023-08-31T06:10:58.884Z,18.09
2023-08-31T06:13:26.856Z,18.47
2023-08-31T06:15:56.624Z,18.58
2023-08-31T06:18:24.630Z,19.06
2023-08-31T06:20:52.470Z,19.29
2023-08-31T06:23:21.795Z,20.00
2023-08-31T06:25:49.665Z,20.24
2023-08-31T06:28:17.526Z,20.56
2023-08-31T06:30:47.693Z,19.95
2023-08-31T06:33:16.373Z,20.89
2023-08-31T06:35:44.725Z,20.87
2023-08-31T06:38:12.595Z,21.50
2023-08-31T06:40:44.381Z,21.62
2023-08-31T06:43:12.588Z,21.33
2023-08-31T06:45:41.416Z,21.20
2023-08-31T06:48:09.777Z,21.62
2023-08-31T06:50:37.859Z,22.23
2023-08-31T06:53:06.089Z,22.61
2023-08-31T06:55:34.816Z,22.78
2023-08-31T06:58:05.591Z,22.57
2023-08-31T07:00:34.219Z,22.98
2023-08-31T07:03:02.222Z,22.97
2023-08-31T07:05:30.867Z,23.55
2023-08-31T07:07:59.502Z,22.87
2023-08-31T07:10:27.385Z,22.80
2023-08-31T07:12:55.437Z,22.28
2023-08-31T07:15:24.710Z,23.15
2023-08-31T07:17:52.613Z,23.48
2023-08-31T07:20:20.513Z,23.76
2023-08-31T07:22:48.496Z,24.10
2023-08-31T07:25:16.666Z,24.41
2023-08-31T07:27:44.507Z,24.56
2023-08-31T07:30:12.951Z,24.41
2023-08-31T07:32:42.238Z,24.21
2023-08-31T07:35:10.429Z,24.46
2023-08-31T07:37:38.389Z,24.96
2023-08-31T07:40:09.486Z,24.77
2023-08-31T07:42:37.434Z,23.82
2023-08-31T07:45:06.751Z,24.50
2023-08-31T07:47:35.576Z,25.80
2023-08-31T07:50:05.399Z,25.69
2023-08-31T07:52:33.294Z,25.70
2023-08-31T07:55:01.911Z,26.01
2023-08-31T07:57:29.754Z,25.42
2023-08-31T07:59:57.812Z,24.71
2023-08-31T08:02:25.743Z,24.99
2023-08-31T08:04:53.677Z,25.81
2023-08-31T08:07:22.894Z,24.75
2023-08-31T08:09:50.848Z,24.63
2023-08-31T08:12:18.693Z,24.38
2023-08-31T08:14:46.609Z,24.19
2023-08-31T08:17:14.463Z,24.36
2023-08-31T08:19:42.599Z,25.14
2023-08-31T08:22:10.770Z,24.71
2023-08-31T08:24:41.385Z,24.89
2023-08-31T08:27:11.320Z,25.09
2023-08-31T08:29:39.232Z,25.32
2023-08-31T08:32:09.895Z,25.12
2023-08-31T08:34:37.777Z,25.90
2023-08-31T08:37:06.041Z,25.77
2023-08-31T08:39:33.899Z,25.91
2023-08-31T08:42:06.737Z,24.81
2023-08-31T08:44:35.433Z,24.56
2023-08-31T08:47:03.169Z,25.18
2023-08-31T08:49:33.317Z,25.26
2023-08-31T08:52:01.311Z,25.74
2023-08-31T08:54:29.537Z,24.75
2023-08-31T08:56:58.442Z,24.12
2023-08-31T08:59:28.626Z,24.02
2023-08-31T09:01:56.574Z,23.29
2023-08-31T09:04:24.452Z,23.56
2023-08-31T09:06:52.925Z,23.70
2023-08-31T09:09:20.959Z,23.95
2023-08-31T09:11:48.846Z,25.25
2023-08-31T09:14:17.582Z,25.60
2023-08-31T09:16:48.761Z,24.37
2023-08-31T09:19:21.460Z,23.37
2023-08-31T09:21:50.036Z,22.93
2023-08-31T09:24:18.723Z,23.31
2023-08-31T09:26:47.349Z,24.13
2023-08-31T09:29:15.545Z,24.82
2023-08-31T09:31:48.535Z,24.65
2023-08-31T09:34:17.240Z,25.01
2023-08-31T09:36:45.670Z,25.15
2023-08-31T09:39:16.342Z,25.26
2023-08-31T09:41:57.140Z,26.11
2023-08-31T09:44:25.272Z,25.46
2023-08-31T09:46:55.005Z,26.61
2023-08-31T09:49:23.736Z,26.11
2023-08-31T09:51:51.932Z,25.69
2023-08-31T09:54:22.800Z,23.92
2023-08-31T09:56:50.713Z,22.91
2023-08-31T09:59:18.920Z,22.49
2023-08-31T10:01:48.248Z,22.43
2023-08-31T10:04:18.530Z,22.05
2023-08-31T10:06:46.392Z,21.64
2023-08-31T10:09:16.317Z,20.77
2023-08-31T10:11:44.592Z,20.71
2023-08-31T10:14:13.994Z,20.49
2023-08-31T10:16:43.088Z,20.41
2023-08-31T10:19:10.997Z,20.22
2023-08-31T10:21:42.327Z,20.34
2023-08-31T10:24:10.329Z,20.01
2023-08-31T10:26:38.332Z,20.11
2023-08-31T10:29:07.454Z,19.77
2023-08-31T10:31:36.890Z,19.71
2023-08-31T10:34:05.740Z,19.80
2023-08-31T10:36:45.220Z,20.62
2023-08-31T10:39:14.534Z,22.13
2023-08-31T10:41:42.568Z,22.73
2023-08-31T10:44:21.787Z,22.35
2023-08-31T10:46:50.984Z,21.71
2023-08-31T10:49:20.845Z,21.28
2023-08-31T10:51:52.208Z,20.61
2023-08-31T10:54:25.654Z,20.14
2023-08-31T10:57:04.009Z,19.56
2023-08-31T10:59:52.497Z,20.76
2023-08-31T11:02:36.079Z,22.29
2023-08-31T11:05:09.366Z,21.43
2023-08-31T11:07:39.943Z,20.53
2023-08-31T11:10:16.499Z,20.20
2023-08-31T11:12:46.280Z,19.63
2023-08-31T11:15:15.488Z,19.23
2023-08-31T11:17:43.862Z,19.02
2023-08-31T11:20:17.867Z,18.82
2023-08-31T11:22:50.647Z,18.95
2023-08-31T11:25:19.605Z,18.99
2023-08-31T11:27:56.409Z,19.67
2023-08-31T11:30:24.574Z,19.80
2023-08-31T11:32:53.792Z,19.70
2023-08-31T11:35:22.571Z,19.97
2023-08-31T11:37:54.139Z,20.26
2023-08-31T11:40:22.180Z,21.67
2023-08-31T11:42:51.037Z,21.59
2023-08-31T11:45:20.152Z,22.26
2023-08-31T11:47:49.907Z,21.67
2023-08-31T11:50:18.959Z,20.45
2023-08-31T11:52:46.828Z,20.12
2023-08-31T11:55:18.515Z,19.81
2023-08-31T11:57:51.782Z,19.62
2023-08-31T12:00:21.926Z,19.57
2023-08-31T12:02:57.979Z,19.52
2023-08-31T12:05:26.071Z,19.40
2023-08-31T12:07:55.895Z,19.23
2023-08-31T12:10:26.349Z,19.01
2023-08-31T12:12:56.790Z,18.94
2023-08-31T12:15:24.923Z,18.61
2023-08-31T12:17:55.676Z,18.72
2023-08-31T12:20:27.219Z,18.16
2023-08-31T12:22:55.089Z,17.99
2023-08-31T12:25:23.328Z,17.89
2023-08-31T12:27:52.658Z,17.79
2023-08-31T12:30:20.640Z,18.04
2023-08-31T12:32:48.800Z,18.95
2023-08-31T12:35:17.009Z,19.01
2023-08-31T12:37:44.899Z,18.87
2023-08-31T12:40:13.439Z,18.78
2023-08-31T12:42:41.335Z,18.73
2023-08-31T12:45:11.440Z,18.92
2023-08-31T12:47:39.343Z,19.05
2023-08-31T12:50:08.340Z,19.12
2023-08-31T12:52:36.240Z,19.27
2023-08-31T12:55:05.371Z,19.33
2023-08-31T12:57:33.056Z,19.42
2023-08-31T13:00:00.910Z,19.97
2023-08-31T13:02:30.209Z,19.83
2023-08-31T13:04:58.192Z,19.64
2023-08-31T13:07:26.049Z,19.64
2023-08-31T13:09:53.921Z,19.97
2023-08-31T13:12:21.763Z,20.32
2023-08-31T13:14:49.650Z,20.26
2023-08-31T13:17:17.482Z,19.97
2023-08-31T13:19:46.706Z,19.78
2023-08-31T13:22:16.588Z,19.80
2023-08-31T13:24:44.512Z,20.08
2023-08-31T13:27:12.381Z,20.07
2023-08-31T13:29:40.224Z,19.74
2023-08-31T13:32:08.347Z,19.36
2023-08-31T13:34:37.767Z,19.29
2023-08-31T13:37:07.330Z,19.27
2023-08-31T13:39:36.942Z,19.20
2023-08-31T13:42:05.821Z,19.32
2023-08-31T13:44:33.736Z,19.56
2023-08-31T13:47:01.629Z,20.10
2023-08-31T13:49:29.503Z,20.17
2023-08-31T13:51:57.320Z,20.53
2023-08-31T13:54:26.788Z,20.52
2023-08-31T13:56:54.707Z,20.59
2023-08-31T13:59:22.615Z,20.93
2023-08-31T14:01:50.517Z,20.41
2023-08-31T14:04:18.463Z,20.53
2023-08-31T14:06:46.344Z,20.22
2023-08-31T14:09:14.233Z,19.67
2023-08-31T14:11:43.480Z,19.43
2023-08-31T14:14:12.172Z,19.43
2023-08-31T14:16:40.414Z,19.30
2023-08-31T14:19:08.283Z,19.30
2023-08-31T14:21:36.152Z,19.34
2023-08-31T14:24:05.246Z,19.57
2023-08-31T14:26:33.001Z,19.69
2023-08-31T14:29:02.220Z,19.57
2023-08-31T14:31:30.135Z,19.62
2023-08-31T14:33:58.130Z,19.74
2023-08-31T14:36:28.124Z,19.59
2023-08-31T14:38:56.003Z,19.67
2023-08-31T14:41:23.994Z,19.80
2023-08-31T14:43:52.371Z,19.77
2023-08-31T14:46:23.018Z,19.95
2023-08-31T14:48:50.870Z,19.95
2023-08-31T14:51:18.960Z,19.94
2023-08-31T14:53:46.764Z,20.18
2023-08-31T14:56:14.665Z,20.42
2023-08-31T14:58:42.528Z,20.53
2023-08-31T15:01:10.376Z,20.29
2023-08-31T15:03:39.684Z,20.28
2023-08-31T15:06:07.677Z,20.17
2023-08-31T15:08:42.041Z,20.18
2023-08-31T15:11:10.129Z,20.18
2023-08-31T15:13:37.988Z,20.14
2023-08-31T15:16:06.225Z,19.98
2023-08-31T15:18:34.245Z,19.95
2023-08-31T15:21:03.467Z,19.95
2023-08-31T15:23:31.343Z,19.73
2023-08-31T15:26:03.735Z,19.75
2023-08-31T15:28:31.757Z,19.81
2023-08-31T15:30:59.635Z,19.88
2023-08-31T15:33:27.576Z,20.03
2023-08-31T15:36:06.290Z,19.90
2023-08-31T15:38:34.789Z,19.52
2023-08-31T15:41:03.761Z,19.56
2023-08-31T15:43:33.210Z,19.42
2023-08-31T15:46:01.614Z,19.43
2023-08-31T15:48:30.035Z,19.32
2023-08-31T15:50:58.592Z,19.27
2023-08-31T15:53:29.138Z,19.20
2023-08-31T15:55:57.592Z,19.20
2023-08-31T15:58:27.577Z,19.15
2023-08-31T16:01:02.406Z,19.15
2023-08-31T16:03:32.079Z,19.22
2023-08-31T16:06:01.324Z,19.27
2023-08-31T16:08:30.693Z,19.22
2023-08-31T16:10:58.866Z,19.15
2023-08-31T16:13:26.846Z,19.01
2023-08-31T16:15:54.784Z,18.94
2023-08-31T16:18:22.716Z,18.87
2023-08-31T16:20:50.635Z,18.76
2023-08-31T16:23:18.526Z,18.72
2023-08-31T16:25:47.780Z,18.61
2023-08-31T16:28:15.826Z,18.60
2023-08-31T16:30:47.673Z,18.68
2023-08-31T16:33:15.836Z,18.61
2023-08-31T16:35:43.724Z,18.55
2023-08-31T16:38:11.923Z,18.48
2023-08-31T16:40:40.312Z,18.41
2023-08-31T16:43:09.595Z,18.36
2023-08-31T16:45:37.416Z,18.23
2023-08-31T16:48:06.080Z,18.13
2023-08-31T16:50:36.003Z,18.07
2023-08-31T16:53:04.192Z,18.03
2023-08-31T16:55:32.375Z,17.99
2023-08-31T16:58:00.833Z,17.96
2023-08-31T17:00:30.336Z,17.94
2023-08-31T17:02:58.325Z,17.90
2023-08-31T17:05:26.230Z,17.92
2023-08-31T17:07:54.087Z,17.87
2023-08-31T17:10:22.125Z,17.78
2023-08-31T17:12:50.011Z,17.70
2023-08-31T17:15:18.005Z,17.62
2023-08-31T17:17:48.897Z,17.55
2023-08-31T17:20:19.277Z,17.43
2023-08-31T17:22:48.190Z,17.36
2023-08-31T17:25:16.165Z,17.38
2023-08-31T17:27:44.104Z,17.31
2023-08-31T17:30:12.418Z,17.25
2023-08-31T17:32:40.522Z,17.19
2023-08-31T17:35:10.743Z,17.21
2023-08-31T17:37:39.507Z,17.18
2023-08-31T17:40:09.019Z,17.14
2023-08-31T17:42:37.759Z,17.08
2023-08-31T17:45:06.446Z,17.03
2023-08-31T17:47:34.605Z,16.98
2023-08-31T17:50:03.896Z,16.90
2023-08-31T17:52:33.222Z,16.84
2023-08-31T17:55:01.279Z,16.80
2023-08-31T17:57:30.270Z,16.71
2023-08-31T17:59:58.263Z,16.70
2023-08-31T18:02:26.303Z,16.64
2023-08-31T18:04:54.897Z,16.61
2023-08-31T18:07:22.861Z,16.52
2023-08-31T18:09:52.150Z,16.46
2023-08-31T18:12:20.015Z,16.40
2023-08-31T18:14:47.958Z,16.33
2023-08-31T18:17:16.032Z,16.29
2023-08-31T18:19:44.003Z,16.29
2023-08-31T18:22:11.948Z,16.22
2023-08-31T18:24:39.837Z,16.22
2023-08-31T18:27:11.610Z,16.19
2023-08-31T18:29:39.771Z,16.23
2023-08-31T18:32:07.992Z,16.13
2023-08-31T18:34:36.653Z,16.05
2023-08-31T18:37:04.952Z,15.99
2023-08-31T18:39:32.897Z,15.95
2023-08-31T18:42:02.268Z,15.91
2023-08-31T18:44:31.564Z,15.81
2023-08-31T18:46:59.609Z,15.77
2023-08-31T18:49:27.544Z,15.74
2023-08-31T18:51:55.541Z,15.67
2023-08-31T18:54:23.633Z,15.59
2023-08-31T18:56:51.690Z,15.53
2023-08-31T18:59:19.632Z,15.57
2023-08-31T19:01:51.223Z,15.53
2023-08-31T19:04:19.420Z,15.50
2023-08-31T19:06:47.342Z,15.50
2023-08-31T19:09:15.372Z,15.43
2023-08-31T19:11:44.098Z,15.41
2023-08-31T19:14:12.084Z,15.36
2023-08-31T19:16:40.255Z,15.27
2023-08-31T19:19:09.725Z,15.22
2023-08-31T19:21:37.688Z,15.20
2023-08-31T19:24:06.357Z,15.13
2023-08-31T19:26:37.537Z,15.14
2023-08-31T19:29:05.573Z,15.02
2023-08-31T19:31:33.635Z,15.03
2023-08-31T19:34:01.700Z,14.99
2023-08-31T19:36:31.117Z,14.89
2023-08-31T19:38:58.988Z,14.90
2023-08-31T19:41:26.926Z,14.80
2023-08-31T19:43:54.834Z,14.80
2023-08-31T19:46:22.716Z,14.75
2023-08-31T19:48:50.611Z,14.71
2023-08-31T19:51:18.500Z,14.68
2023-08-31T19:53:47.724Z,14.62
2023-08-31T19:56:15.460Z,14.62
2023-08-31T19:58:43.299Z,14.58
2023-08-31T20:01:11.345Z,14.56
2023-08-31T20:03:39.900Z,14.54
2023-08-31T20:06:08.451Z,14.42
2023-08-31T20:08:38.029Z,14.41
2023-08-31T20:11:07.436Z,14.39
2023-08-31T20:13:35.468Z,14.41
2023-08-31T20:16:04.632Z,14.42
2023-08-31T20:18:32.465Z,14.49
2023-08-31T20:21:00.339Z,14.41
2023-08-31T20:23:28.244Z,14.35
2023-08-31T20:25:56.738Z,14.32
2023-08-31T20:28:26.005Z,14.34
2023-08-31T20:30:55.338Z,14.44
2023-08-31T20:33:23.345Z,14.46
2023-08-31T20:35:51.378Z,14.48
2023-08-31T20:38:19.339Z,14.46
2023-08-31T20:40:48.296Z,14.48
2023-08-31T20:43:16.179Z,14.48
2023-08-31T20:45:45.433Z,14.49
2023-08-31T20:48:14.920Z,14.49
2023-08-31T20:50:43.139Z,14.44
2023-08-31T20:53:11.018Z,14.42
2023-08-31T20:55:39.005Z,14.38
2023-08-31T20:58:06.975Z,14.44
2023-08-31T21:00:34.892Z,14.44
2023-08-31T21:03:04.722Z,14.44
2023-08-31T21:05:32.661Z,14.46
2023-08-31T21:08:00.643Z,14.48
2023-08-31T21:10:28.674Z,14.51
2023-08-31T21:12:56.692Z,14.51
2023-08-31T21:15:24.777Z,14.54
2023-08-31T21:17:52.849Z,14.51
2023-08-31T21:20:22.160Z,14.54
2023-08-31T21:22:50.144Z,14.45
2023-08-31T21:25:18.240Z,14.45
2023-08-31T21:27:46.194Z,14.46
2023-08-31T21:30:14.237Z,14.41
2023-08-31T21:32:42.561Z,14.49
2023-08-31T21:35:10.475Z,14.55
2023-08-31T21:37:40.037Z,14.51
2023-08-31T21:40:08.918Z,14.51
2023-08-31T21:42:36.827Z,14.55
2023-08-31T21:45:05.067Z,14.54
2023-08-31T21:47:33.110Z,14.61
2023-08-31T21:50:01.062Z,14.71
2023-08-31T21:52:28.942Z,14.68
2023-08-31T21:54:58.220Z,14.66
2023-08-31T21:57:26.735Z,14.64
2023-08-31T21:59:54.678Z,14.66
2023-08-31T22:02:22.657Z,14.71
2023-08-31T22:04:51.932Z,14.73
2023-08-31T22:07:21.269Z,14.73
2023-08-31T22:09:51.090Z,14.75
2023-08-31T22:12:20.687Z,14.75
2023-08-31T22:14:49.262Z,14.73
2023-08-31T22:17:17.532Z,14.79
2023-08-31T22:19:46.163Z,14.77
2023-08-31T22:22:14.576Z,14.79
2023-08-31T22:24:42.780Z,14.80
2023-08-31T22:27:10.945Z,14.80
2023-08-31T22:29:40.577Z,14.83
2023-08-31T22:32:08.792Z,14.80
2023-08-31T22:34:36.739Z,14.85
2023-08-31T22:37:05.058Z,14.86
2023-08-31T22:39:33.304Z,14.82
2023-08-31T22:42:01.195Z,14.80
2023-08-31T22:44:29.087Z,14.76
2023-08-31T22:46:58.373Z,14.72
2023-08-31T22:49:26.252Z,14.72
2023-08-31T22:51:54.177Z,14.73
2023-08-31T22:54:22.246Z,14.75
2023-08-31T22:56:50.245Z,14.80
2023-08-31T22:59:18.131Z,14.76
2023-08-31T23:01:47.240Z,14.72
2023-08-31T23:04:16.503Z,14.71
2023-08-31T23:06:44.539Z,14.79
2023-08-31T23:09:12.402Z,14.82
2023-08-31T23:11:40.296Z,14.86
2023-08-31T23:14:08.209Z,14.79
2023-08-31T23:16:36.035Z,14.71
2023-08-31T23:19:03.980Z,14.61
2023-08-31T23:21:42.088Z,14.64
2023-08-31T23:24:11.502Z,14.65
2023-08-31T23:26:39.573Z,14.65
2023-08-31T23:29:07.898Z,14.69
2023-08-31T23:31:36.121Z,14.72
2023-08-31T23:34:04.129Z,14.68
2023-08-31T23:36:33.666Z,14.71
2023-08-31T23:39:02.128Z,14.68
2023-08-31T23:41:30.210Z,14.77
2023-08-31T23:43:58.046Z,14.80
2023-08-31T23:46:26.163Z,14.79
2023-08-31T23:48:54.077Z,14.79
2023-08-31T23:51:21.913Z,14.77
2023-08-31T23:53:51.172Z,14.76
2023-08-31T23:56:18.854Z,14.77
2023-08-31T23:58:48.270Z,14.72
